Terminal Aerodrome Forecast
Issued by NWS

Home | Current Version | Previous Version | Text Only | Print | Product List | Glossary On
Versions: 1 2 3 4 5 6 7 8 9 10 11 12 13 14 15 16 17 18 19 20 21 22 23 24 25 26 27 28
204
FTUS43 KDLH 290523
TAFHIB
TAF
KHIB 290523Z 2906/3006 14008KT P6SM VCSH BKN030 OVC120
     FM290700 14006KT P6SM -SHRA VCTS SCT020 BKN030CB OVC120
      TEMPO 2909/2913 2SM TSRA BR BKN020CB OVC030
     FM291400 17008KT P6SM SCT040 BKN100
     FM291800 21012KT P6SM VCTS SCT040CB BKN150
     FM292100 24010KT P6SM SCT040 BKN100
     FM300300 32005KT P6SM SKC=

USA.gov is the U.S. government's official web portal to all federal, state and local government web resources and services.